sensor_id;sensor_type;location;lat;lon;timestamp;P1;durP1;ratioP1;P2;durP2;ratioP2
60722;SDS011;46574;52.818;6.516;2022-10-26T00:00:24;12.20;;;9.93;;
60722;SDS011;46574;52.818;6.516;2022-10-26T00:02:52;10.15;;;9.13;;
60722;SDS011;46574;52.818;6.516;2022-10-26T00:05:19;12.70;;;9.88;;
60722;SDS011;46574;52.818;6.516;2022-10-26T00:07:45;13.43;;;10.20;;
60722;SDS011;46574;52.818;6.516;2022-10-26T00:10:12;14.63;;;10.77;;
60722;SDS011;46574;52.818;6.516;2022-10-26T00:12:37;15.48;;;10.80;;
60722;SDS011;46574;52.818;6.516;2022-10-26T00:15:03;14.30;;;11.73;;
60722;SDS011;46574;52.818;6.516;2022-10-26T00:17:30;14.77;;;11.77;;
60722;SDS011;46574;52.818;6.516;2022-10-26T00:19:55;13.32;;;11.38;;
60722;SDS011;46574;52.818;6.516;2022-10-26T00:22:22;12.68;;;11.15;;
60722;SDS011;46574;52.818;6.516;2022-10-26T00:24:48;16.92;;;11.68;;
60722;SDS011;46574;52.818;6.516;2022-10-26T00:27:13;12.00;;;9.85;;
60722;SDS011;46574;52.818;6.516;2022-10-26T00:29:39;14.35;;;11.00;;
60722;SDS011;46574;52.818;6.516;2022-10-26T00:32:04;13.15;;;10.77;;
60722;SDS011;46574;52.818;6.516;2022-10-26T00:34:30;10.90;;;9.73;;
60722;SDS011;46574;52.818;6.516;2022-10-26T00:36:56;12.77;;;9.93;;
60722;SDS011;46574;52.818;6.516;2022-10-26T00:39:22;13.70;;;10.40;;
60722;SDS011;46574;52.818;6.516;2022-10-26T00:41:48;13.05;;;10.15;;
60722;SDS011;46574;52.818;6.516;2022-10-26T00:47:10;13.35;;;11.15;;
60722;SDS011;46574;52.818;6.516;2022-10-26T00:49:53;12.25;;;9.73;;
60722;SDS011;46574;52.818;6.516;2022-10-26T00:52:20;11.85;;;10.20;;
60722;SDS011;46574;52.818;6.516;2022-10-26T00:54:47;9.70;;;8.40;;
60722;SDS011;46574;52.818;6.516;2022-10-26T00:57:13;13.60;;;11.07;;
60722;SDS011;46574;52.818;6.516;2022-10-26T00:59:41;11.48;;;9.52;;
60722;SDS011;46574;52.818;6.516;2022-10-26T01:02:08;11.50;;;10.30;;
60722;SDS011;46574;52.818;6.516;2022-10-26T01:04:33;12.70;;;10.95;;
60722;SDS011;46574;52.818;6.516;2022-10-26T01:07:00;12.50;;;10.43;;
60722;SDS011;46574;52.818;6.516;2022-10-26T01:09:28;12.05;;;10.48;;
60722;SDS011;46574;52.818;6.516;2022-10-26T01:11:54;12.57;;;10.10;;
60722;SDS011;46574;52.818;6.516;2022-10-26T01:14:20;13.25;;;10.00;;
60722;SDS011;46574;52.818;6.516;2022-10-26T01:16:53;13.70;;;10.82;;
60722;SDS011;46574;52.818;6.516;2022-10-26T01:19:39;14.98;;;10.48;;
60722;SDS011;46574;52.818;6.516;2022-10-26T01:25:00;14.15;;;11.80;;
60722;SDS011;46574;52.818;6.516;2022-10-26T01:27:44;13.30;;;11.45;;
60722;SDS011;46574;52.818;6.516;2022-10-26T01:33:00;10.93;;;9.48;;
60722;SDS011;46574;52.818;6.516;2022-10-26T01:35:36;12.85;;;9.27;;
60722;SDS011;46574;52.818;6.516;2022-10-26T01:38:17;15.88;;;10.20;;
60722;SDS011;46574;52.818;6.516;2022-10-26T01:40:58;12.80;;;10.65;;
60722;SDS011;46574;52.818;6.516;2022-10-26T01:43:49;17.30;;;10.65;;
60722;SDS011;46574;52.818;6.516;2022-10-26T01:46:27;13.93;;;11.07;;
60722;SDS011;46574;52.818;6.516;2022-10-26T01:48:57;14.00;;;10.77;;
60722;SDS011;46574;52.818;6.516;2022-10-26T01:51:26;12.35;;;9.90;;
60722;SDS011;46574;52.818;6.516;2022-10-26T01:53:54;12.88;;;9.95;;
60722;SDS011;46574;52.818;6.516;2022-10-26T01:56:20;16.85;;;10.48;;
60722;SDS011;46574;52.818;6.516;2022-10-26T01:58:59;14.45;;;10.88;;
60722;SDS011;46574;52.818;6.516;2022-10-26T02:07:24;12.10;;;10.68;;
60722;SDS011;46574;52.818;6.516;2022-10-26T02:15:33;15.57;;;12.15;;
60722;SDS011;46574;52.818;6.516;2022-10-26T02:20:50;12.90;;;10.57;;
60722;SDS011;46574;52.818;6.516;2022-10-26T02:23:22;11.63;;;10.23;;
60722;SDS011;46574;52.818;6.516;2022-10-26T02:28:30;11.98;;;9.48;;
60722;SDS011;46574;52.818;6.516;2022-10-26T02:31:00;12.70;;;10.77;;
60722;SDS011;46574;52.818;6.516;2022-10-26T02:33:28;16.88;;;12.77;;
60722;SDS011;46574;52.818;6.516;2022-10-26T02:38:24;11.88;;;10.65;;
60722;SDS011;46574;52.818;6.516;2022-10-26T02:40:53;14.20;;;11.40;;
60722;SDS011;46574;52.818;6.516;2022-10-26T02:43:20;12.48;;;10.70;;
60722;SDS011;46574;52.818;6.516;2022-10-26T02:45:51;14.20;;;11.35;;
60722;SDS011;46574;52.818;6.516;2022-10-26T02:48:20;19.83;;;13.57;;
60722;SDS011;46574;52.818;6.516;2022-10-26T02:55:56;15.88;;;13.32;;
60722;SDS011;46574;52.818;6.516;2022-10-26T02:58:28;17.50;;;13.60;;
60722;SDS011;46574;52.818;6.516;2022-10-26T03:00:57;16.98;;;13.55;;
60722;SDS011;46574;52.818;6.516;2022-10-26T03:03:24;16.67;;;12.38;;
60722;SDS011;46574;52.818;6.516;2022-10-26T03:05:50;17.05;;;13.98;;
60722;SDS011;46574;52.818;6.516;2022-10-26T03:08:15;16.00;;;12.90;;
60722;SDS011;46574;52.818;6.516;2022-10-26T03:10:42;16.13;;;13.15;;
60722;SDS011;46574;52.818;6.516;2022-10-26T03:13:09;15.15;;;12.65;;
60722;SDS011;46574;52.818;6.516;2022-10-26T03:15:36;19.58;;;14.52;;
60722;SDS011;46574;52.818;6.516;2022-10-26T03:18:02;15.80;;;14.20;;
60722;SDS011;46574;52.818;6.516;2022-10-26T03:20:28;17.50;;;13.63;;
60722;SDS011;46574;52.818;6.516;2022-10-26T03:22:53;12.85;;;11.13;;
60722;SDS011;46574;52.818;6.516;2022-10-26T03:25:21;14.90;;;13.23;;
60722;SDS011;46574;52.818;6.516;2022-10-26T03:27:54;13.45;;;12.15;;
60722;SDS011;46574;52.818;6.516;2022-10-26T03:30:24;17.25;;;14.20;;
60722;SDS011;46574;52.818;6.516;2022-10-26T03:32:51;16.25;;;13.35;;
60722;SDS011;46574;52.818;6.516;2022-10-26T03:35:16;15.05;;;12.75;;
60722;SDS011;46574;52.818;6.516;2022-10-26T03:37:42;17.33;;;15.23;;
60722;SDS011;46574;52.818;6.516;2022-10-26T03:40:08;18.35;;;14.45;;
60722;SDS011;46574;52.818;6.516;2022-10-26T03:42:37;18.63;;;15.00;;
60722;SDS011;46574;52.818;6.516;2022-10-26T03:45:03;19.02;;;15.13;;
60722;SDS011;46574;52.818;6.516;2022-10-26T03:47:30;19.20;;;15.30;;
60722;SDS011;46574;52.818;6.516;2022-10-26T03:49:56;17.92;;;14.50;;
60722;SDS011;46574;52.818;6.516;2022-10-26T03:52:21;19.05;;;15.52;;
60722;SDS011;46574;52.818;6.516;2022-10-26T03:54:48;18.35;;;13.68;;
60722;SDS011;46574;52.818;6.516;2022-10-26T03:57:15;19.30;;;14.77;;
60722;SDS011;46574;52.818;6.516;2022-10-26T03:59:40;18.50;;;14.13;;
60722;SDS011;46574;52.818;6.516;2022-10-26T04:02:06;16.20;;;13.43;;
60722;SDS011;46574;52.818;6.516;2022-10-26T04:04:32;15.65;;;12.48;;
60722;SDS011;46574;52.818;6.516;2022-10-26T04:06:57;18.50;;;15.02;;
60722;SDS011;46574;52.818;6.516;2022-10-26T04:09:23;18.52;;;16.20;;
60722;SDS011;46574;52.818;6.516;2022-10-26T04:11:48;19.48;;;15.68;;
60722;SDS011;46574;52.818;6.516;2022-10-26T04:14:14;19.38;;;15.30;;
60722;SDS011;46574;52.818;6.516;2022-10-26T04:16:40;16.80;;;14.30;;
60722;SDS011;46574;52.818;6.516;2022-10-26T04:19:05;20.92;;;16.90;;
60722;SDS011;46574;52.818;6.516;2022-10-26T04:21:31;20.98;;;16.10;;
60722;SDS011;46574;52.818;6.516;2022-10-26T04:23:57;18.80;;;15.65;;
60722;SDS011;46574;52.818;6.516;2022-10-26T04:26:23;16.92;;;13.80;;
60722;SDS011;46574;52.818;6.516;2022-10-26T04:28:49;17.83;;;13.82;;
60722;SDS011;46574;52.818;6.516;2022-10-26T04:31:14;17.35;;;14.65;;
60722;SDS011;46574;52.818;6.516;2022-10-26T04:33:40;22.10;;;16.48;;
60722;SDS011;46574;52.818;6.516;2022-10-26T04:36:06;17.02;;;14.82;;
60722;SDS011;46574;52.818;6.516;2022-10-26T04:38:32;17.38;;;13.88;;
60722;SDS011;46574;52.818;6.516;2022-10-26T04:40:57;20.42;;;14.70;;
60722;SDS011;46574;52.818;6.516;2022-10-26T04:43:23;16.00;;;14.27;;
60722;SDS011;46574;52.818;6.516;2022-10-26T04:45:49;16.25;;;14.30;;
60722;SDS011;46574;52.818;6.516;2022-10-26T04:48:18;19.30;;;15.40;;
60722;SDS011;46574;52.818;6.516;2022-10-26T04:50:43;18.58;;;15.20;;
60722;SDS011;46574;52.818;6.516;2022-10-26T04:53:09;18.88;;;15.98;;
60722;SDS011;46574;52.818;6.516;2022-10-26T04:55:35;17.40;;;14.82;;
60722;SDS011;46574;52.818;6.516;2022-10-26T04:58:01;19.38;;;15.27;;
60722;SDS011;46574;52.818;6.516;2022-10-26T05:00:27;18.40;;;14.73;;
60722;SDS011;46574;52.818;6.516;2022-10-26T05:02:57;19.20;;;15.80;;
60722;SDS011;46574;52.818;6.516;2022-10-26T05:05:27;18.73;;;15.02;;
60722;SDS011;46574;52.818;6.516;2022-10-26T05:07:54;19.63;;;15.40;;
60722;SDS011;46574;52.818;6.516;2022-10-26T05:10:20;18.52;;;15.18;;
60722;SDS011;46574;52.818;6.516;2022-10-26T05:12:50;15.85;;;12.95;;
60722;SDS011;46574;52.818;6.516;2022-10-26T05:15:16;17.52;;;13.90;;
60722;SDS011;46574;52.818;6.516;2022-10-26T05:17:42;14.48;;;12.85;;
60722;SDS011;46574;52.818;6.516;2022-10-26T05:20:08;16.02;;;12.93;;
60722;SDS011;46574;52.818;6.516;2022-10-26T05:22:37;17.98;;;13.40;;
60722;SDS011;46574;52.818;6.516;2022-10-26T05:25:03;15.63;;;12.32;;
60722;SDS011;46574;52.818;6.516;2022-10-26T05:27:29;17.85;;;12.88;;
60722;SDS011;46574;52.818;6.516;2022-10-26T05:29:55;14.23;;;11.27;;
60722;SDS011;46574;52.818;6.516;2022-10-26T05:32:20;13.32;;;10.43;;
60722;SDS011;46574;52.818;6.516;2022-10-26T05:34:46;15.65;;;12.57;;
60722;SDS011;46574;52.818;6.516;2022-10-26T05:37:11;16.98;;;12.32;;
60722;SDS011;46574;52.818;6.516;2022-10-26T05:39:37;17.40;;;13.10;;
60722;SDS011;46574;52.818;6.516;2022-10-26T05:42:03;16.48;;;13.20;;
60722;SDS011;46574;52.818;6.516;2022-10-26T05:44:28;15.55;;;12.43;;
60722;SDS011;46574;52.818;6.516;2022-10-26T05:46:54;16.05;;;12.85;;
60722;SDS011;46574;52.818;6.516;2022-10-26T05:49:19;16.38;;;13.48;;
60722;SDS011;46574;52.818;6.516;2022-10-26T05:51:45;18.60;;;13.07;;
60722;SDS011;46574;52.818;6.516;2022-10-26T05:54:11;18.00;;;12.90;;
60722;SDS011;46574;52.818;6.516;2022-10-26T05:56:37;19.33;;;15.27;;
60722;SDS011;46574;52.818;6.516;2022-10-26T05:59:09;17.02;;;13.70;;
60722;SDS011;46574;52.818;6.516;2022-10-26T06:04:23;16.00;;;12.52;;
60722;SDS011;46574;52.818;6.516;2022-10-26T06:07:18;17.23;;;14.00;;
60722;SDS011;46574;52.818;6.516;2022-10-26T06:09:45;15.52;;;11.73;;
60722;SDS011;46574;52.818;6.516;2022-10-26T06:12:12;15.32;;;13.05;;
60722;SDS011;46574;52.818;6.516;2022-10-26T06:14:38;15.32;;;11.88;;
60722;SDS011;46574;52.818;6.516;2022-10-26T06:17:14;14.98;;;12.05;;
60722;SDS011;46574;52.818;6.516;2022-10-26T06:22:38;15.20;;;11.82;;
60722;SDS011;46574;52.818;6.516;2022-10-26T06:30:56;15.13;;;12.38;;
60722;SDS011;46574;52.818;6.516;2022-10-26T06:33:22;13.40;;;10.95;;
60722;SDS011;46574;52.818;6.516;2022-10-26T06:38:29;16.80;;;11.73;;
60722;SDS011;46574;52.818;6.516;2022-10-26T06:40:58;13.65;;;10.93;;
60722;SDS011;46574;52.818;6.516;2022-10-26T06:43:25;15.90;;;12.10;;
60722;SDS011;46574;52.818;6.516;2022-10-26T06:46:05;13.18;;;11.02;;
60722;SDS011;46574;52.818;6.516;2022-10-26T06:51:25;16.17;;;11.82;;
60722;SDS011;46574;52.818;6.516;2022-10-26T06:54:02;16.90;;;12.85;;
60722;SDS011;46574;52.818;6.516;2022-10-26T06:56:32;13.75;;;11.55;;
60722;SDS011;46574;52.818;6.516;2022-10-26T06:59:08;13.07;;;11.45;;
60722;SDS011;46574;52.818;6.516;2022-10-26T07:01:51;15.25;;;12.30;;
60722;SDS011;46574;52.818;6.516;2022-10-26T07:04:16;16.13;;;11.88;;
60722;SDS011;46574;52.818;6.516;2022-10-26T07:06:42;16.65;;;12.27;;
60722;SDS011;46574;52.818;6.516;2022-10-26T07:09:08;14.18;;;11.85;;
60722;SDS011;46574;52.818;6.516;2022-10-26T07:11:33;14.38;;;11.73;;
60722;SDS011;46574;52.818;6.516;2022-10-26T07:13:59;13.05;;;10.60;;
60722;SDS011;46574;52.818;6.516;2022-10-26T07:16:24;13.95;;;11.68;;
60722;SDS011;46574;52.818;6.516;2022-10-26T07:18:50;14.02;;;11.40;;
60722;SDS011;46574;52.818;6.516;2022-10-26T07:21:16;13.75;;;10.95;;
60722;SDS011;46574;52.818;6.516;2022-10-26T07:23:41;12.82;;;11.20;;
60722;SDS011;46574;52.818;6.516;2022-10-26T07:26:07;11.48;;;10.25;;
60722;SDS011;46574;52.818;6.516;2022-10-26T07:28:32;12.75;;;10.32;;
60722;SDS011;46574;52.818;6.516;2022-10-26T07:31:00;13.85;;;11.10;;
60722;SDS011;46574;52.818;6.516;2022-10-26T07:33:26;12.18;;;9.98;;
60722;SDS011;46574;52.818;6.516;2022-10-26T07:35:51;12.98;;;10.45;;
60722;SDS011;46574;52.818;6.516;2022-10-26T07:38:19;11.80;;;10.07;;
60722;SDS011;46574;52.818;6.516;2022-10-26T07:40:45;11.95;;;10.27;;
60722;SDS011;46574;52.818;6.516;2022-10-26T07:43:10;12.75;;;10.50;;
60722;SDS011;46574;52.818;6.516;2022-10-26T07:45:36;13.45;;;10.18;;
60722;SDS011;46574;52.818;6.516;2022-10-26T07:48:02;14.60;;;9.70;;
60722;SDS011;46574;52.818;6.516;2022-10-26T07:50:28;12.73;;;9.65;;
60722;SDS011;46574;52.818;6.516;2022-10-26T07:52:53;13.18;;;10.23;;
60722;SDS011;46574;52.818;6.516;2022-10-26T07:55:19;13.75;;;9.70;;
60722;SDS011;46574;52.818;6.516;2022-10-26T07:57:45;13.02;;;9.63;;
60722;SDS011;46574;52.818;6.516;2022-10-26T08:00:10;14.80;;;9.60;;
60722;SDS011;46574;52.818;6.516;2022-10-26T08:02:36;11.52;;;8.40;;
60722;SDS011;46574;52.818;6.516;2022-10-26T08:05:02;10.70;;;9.13;;
60722;SDS011;46574;52.818;6.516;2022-10-26T08:07:28;10.35;;;9.02;;
60722;SDS011;46574;52.818;6.516;2022-10-26T08:09:55;10.38;;;9.10;;
60722;SDS011;46574;52.818;6.516;2022-10-26T08:12:21;13.07;;;9.10;;
60722;SDS011;46574;52.818;6.516;2022-10-26T08:14:47;10.07;;;8.48;;
60722;SDS011;46574;52.818;6.516;2022-10-26T08:17:12;9.18;;;8.23;;
60722;SDS011;46574;52.818;6.516;2022-10-26T08:19:38;8.93;;;7.93;;
60722;SDS011;46574;52.818;6.516;2022-10-26T08:22:03;12.05;;;8.43;;
60722;SDS011;46574;52.818;6.516;2022-10-26T08:24:30;13.30;;;8.68;;
60722;SDS011;46574;52.818;6.516;2022-10-26T08:26:56;9.45;;;8.35;;
60722;SDS011;46574;52.818;6.516;2022-10-26T08:29:21;9.75;;;8.23;;
60722;SDS011;46574;52.818;6.516;2022-10-26T08:31:47;10.43;;;8.30;;
60722;SDS011;46574;52.818;6.516;2022-10-26T08:34:13;10.73;;;8.20;;
60722;SDS011;46574;52.818;6.516;2022-10-26T08:36:38;10.40;;;8.27;;
60722;SDS011;46574;52.818;6.516;2022-10-26T08:39:04;12.30;;;9.07;;
60722;SDS011;46574;52.818;6.516;2022-10-26T08:41:37;10.35;;;7.85;;
60722;SDS011;46574;52.818;6.516;2022-10-26T08:44:21;12.70;;;8.48;;
60722;SDS011;46574;52.818;6.516;2022-10-26T08:47:18;8.63;;;7.43;;
60722;SDS011;46574;52.818;6.516;2022-10-26T08:52:19;11.23;;;7.85;;
60722;SDS011;46574;52.818;6.516;2022-10-26T08:54:52;10.32;;;7.30;;
60722;SDS011;46574;52.818;6.516;2022-10-26T08:57:23;10.60;;;7.95;;
60722;SDS011;46574;52.818;6.516;2022-10-26T09:02:20;10.05;;;7.60;;
60722;SDS011;46574;52.818;6.516;2022-10-26T09:04:46;9.38;;;7.13;;
60722;SDS011;46574;52.818;6.516;2022-10-26T09:07:28;8.50;;;6.72;;
60722;SDS011;46574;52.818;6.516;2022-10-26T09:10:15;9.00;;;6.75;;
60722;SDS011;46574;52.818;6.516;2022-10-26T09:12:53;9.68;;;7.22;;
60722;SDS011;46574;52.818;6.516;2022-10-26T09:18:28;8.82;;;6.80;;
60722;SDS011;46574;52.818;6.516;2022-10-26T09:24:05;10.10;;;5.97;;
60722;SDS011;46574;52.818;6.516;2022-10-26T09:29:12;7.10;;;5.68;;
60722;SDS011;46574;52.818;6.516;2022-10-26T09:31:42;7.35;;;5.60;;
60722;SDS011;46574;52.818;6.516;2022-10-26T09:37:20;6.88;;;5.40;;
60722;SDS011;46574;52.818;6.516;2022-10-26T09:43:08;7.28;;;5.10;;
60722;SDS011;46574;52.818;6.516;2022-10-26T09:45:39;6.40;;;4.78;;
60722;SDS011;46574;52.818;6.516;2022-10-26T09:48:13;5.88;;;4.28;;
60722;SDS011;46574;52.818;6.516;2022-10-26T09:50:47;6.43;;;4.55;;
60722;SDS011;46574;52.818;6.516;2022-10-26T09:53:15;6.70;;;4.47;;
60722;SDS011;46574;52.818;6.516;2022-10-26T09:55:44;11.02;;;4.97;;
60722;SDS011;46574;52.818;6.516;2022-10-26T09:58:13;6.93;;;4.85;;
60722;SDS011;46574;52.818;6.516;2022-10-26T10:00:51;5.78;;;4.55;;
60722;SDS011;46574;52.818;6.516;2022-10-26T10:03:19;9.35;;;5.45;;
60722;SDS011;46574;52.818;6.516;2022-10-26T10:05:49;7.25;;;4.80;;
60722;SDS011;46574;52.818;6.516;2022-10-26T10:08:26;6.35;;;4.35;;
60722;SDS011;46574;52.818;6.516;2022-10-26T10:13:37;8.00;;;4.68;;
60722;SDS011;46574;52.818;6.516;2022-10-26T10:18:59;6.18;;;4.07;;
60722;SDS011;46574;52.818;6.516;2022-10-26T10:21:44;6.07;;;4.72;;
60722;SDS011;46574;52.818;6.516;2022-10-26T10:26:55;9.25;;;5.35;;
60722;SDS011;46574;52.818;6.516;2022-10-26T10:29:33;5.07;;;4.00;;
60722;SDS011;46574;52.818;6.516;2022-10-26T10:32:04;4.80;;;4.25;;
60722;SDS011;46574;52.818;6.516;2022-10-26T10:34:30;7.78;;;4.80;;
60722;SDS011;46574;52.818;6.516;2022-10-26T10:36:58;6.45;;;4.25;;
60722;SDS011;46574;52.818;6.516;2022-10-26T10:39:38;7.33;;;4.40;;
60722;SDS011;46574;52.818;6.516;2022-10-26T10:42:40;6.43;;;4.30;;
60722;SDS011;46574;52.818;6.516;2022-10-26T10:44:59;4.32;;;3.53;;
60722;SDS011;46574;52.818;6.516;2022-10-26T10:47:35;5.47;;;3.90;;
60722;SDS011;46574;52.818;6.516;2022-10-26T10:50:21;6.65;;;4.13;;
60722;SDS011;46574;52.818;6.516;2022-10-26T10:52:47;5.82;;;3.83;;
60722;SDS011;46574;52.818;6.516;2022-10-26T10:57:44;6.25;;;3.63;;
60722;SDS011;46574;52.818;6.516;2022-10-26T11:00:29;5.57;;;3.58;;
60722;SDS011;46574;52.818;6.516;2022-10-26T11:05:59;6.00;;;3.72;;
60722;SDS011;46574;52.818;6.516;2022-10-26T11:08:27;5.70;;;4.10;;
60722;SDS011;46574;52.818;6.516;2022-10-26T11:11:32;5.03;;;3.33;;
60722;SDS011;46574;52.818;6.516;2022-10-26T11:16:36;4.97;;;3.47;;
60722;SDS011;46574;52.818;6.516;2022-10-26T11:21:40;6.55;;;4.00;;
60722;SDS011;46574;52.818;6.516;2022-10-26T11:24:15;6.68;;;3.58;;
60722;SDS011;46574;52.818;6.516;2022-10-26T11:26:47;7.05;;;3.85;;
60722;SDS011;46574;52.818;6.516;2022-10-26T11:29:25;5.90;;;2.88;;
60722;SDS011;46574;52.818;6.516;2022-10-26T11:32:00;8.02;;;3.35;;
60722;SDS011;46574;52.818;6.516;2022-10-26T11:46:04;5.20;;;3.20;;
60722;SDS011;46574;52.818;6.516;2022-10-26T11:48:46;6.55;;;3.35;;
60722;SDS011;46574;52.818;6.516;2022-10-26T11:51:44;2.85;;;2.50;;
60722;SDS011;46574;52.818;6.516;2022-10-26T11:54:31;5.03;;;3.03;;
60722;SDS011;46574;52.818;6.516;2022-10-26T11:57:04;5.00;;;3.10;;
60722;SDS011;46574;52.818;6.516;2022-10-26T11:59:31;5.47;;;2.85;;
60722;SDS011;46574;52.818;6.516;2022-10-26T12:02:03;5.43;;;3.22;;
60722;SDS011;46574;52.818;6.516;2022-10-26T12:04:39;5.30;;;3.08;;
60722;SDS011;46574;52.818;6.516;2022-10-26T12:07:12;4.70;;;3.28;;
60722;SDS011;46574;52.818;6.516;2022-10-26T12:09:45;5.15;;;3.17;;
60722;SDS011;46574;52.818;6.516;2022-10-26T12:12:22;4.85;;;3.22;;
60722;SDS011;46574;52.818;6.516;2022-10-26T12:17:52;3.85;;;2.88;;
60722;SDS011;46574;52.818;6.516;2022-10-26T12:23:29;4.37;;;3.23;;
60722;SDS011;46574;52.818;6.516;2022-10-26T12:29:12;4.38;;;3.25;;
60722;SDS011;46574;52.818;6.516;2022-10-26T12:31:48;5.70;;;3.55;;
60722;SDS011;46574;52.818;6.516;2022-10-26T12:34:15;8.55;;;3.70;;
60722;SDS011;46574;52.818;6.516;2022-10-26T12:39:35;4.80;;;3.25;;
60722;SDS011;46574;52.818;6.516;2022-10-26T12:44:37;5.88;;;3.45;;
60722;SDS011;46574;52.818;6.516;2022-10-26T12:49:59;4.63;;;2.97;;
60722;SDS011;46574;52.818;6.516;2022-10-26T12:55:12;5.20;;;3.58;;
60722;SDS011;46574;52.818;6.516;2022-10-26T13:01:13;7.18;;;3.90;;
60722;SDS011;46574;52.818;6.516;2022-10-26T13:06:55;5.55;;;3.80;;
60722;SDS011;46574;52.818;6.516;2022-10-26T13:09:33;4.90;;;3.30;;
60722;SDS011;46574;52.818;6.516;2022-10-26T13:12:00;6.30;;;3.67;;
60722;SDS011;46574;52.818;6.516;2022-10-26T13:17:01;6.93;;;3.50;;
60722;SDS011;46574;52.818;6.516;2022-10-26T13:19:42;5.35;;;3.28;;
60722;SDS011;46574;52.818;6.516;2022-10-26T13:22:28;5.63;;;4.10;;
60722;SDS011;46574;52.818;6.516;2022-10-26T13:24:56;5.45;;;4.10;;
60722;SDS011;46574;52.818;6.516;2022-10-26T13:32:35;5.45;;;4.95;;
60722;SDS011;46574;52.818;6.516;2022-10-26T13:35:09;7.20;;;4.95;;
60722;SDS011;46574;52.818;6.516;2022-10-26T13:37:39;7.53;;;5.68;;
60722;SDS011;46574;52.818;6.516;2022-10-26T13:40:09;7.75;;;5.65;;
60722;SDS011;46574;52.818;6.516;2022-10-26T13:42:44;8.13;;;5.30;;
60722;SDS011;46574;52.818;6.516;2022-10-26T13:45:20;8.60;;;6.03;;
60722;SDS011;46574;52.818;6.516;2022-10-26T13:47:57;6.75;;;5.72;;
60722;SDS011;46574;52.818;6.516;2022-10-26T13:50:45;6.03;;;4.90;;
60722;SDS011;46574;52.818;6.516;2022-10-26T13:53:28;6.60;;;4.83;;
60722;SDS011;46574;52.818;6.516;2022-10-26T13:56:23;6.38;;;5.40;;
60722;SDS011;46574;52.818;6.516;2022-10-26T13:59:04;6.50;;;5.72;;
60722;SDS011;46574;52.818;6.516;2022-10-26T14:01:33;6.28;;;5.68;;
60722;SDS011;46574;52.818;6.516;2022-10-26T14:04:12;7.90;;;6.60;;
60722;SDS011;46574;52.818;6.516;2022-10-26T14:06:39;9.73;;;5.93;;
60722;SDS011;46574;52.818;6.516;2022-10-26T14:09:11;186.13;;;20.75;;
60722;SDS011;46574;52.818;6.516;2022-10-26T14:11:43;14.10;;;6.55;;
60722;SDS011;46574;52.818;6.516;2022-10-26T14:14:21;7.97;;;5.55;;
60722;SDS011;46574;52.818;6.516;2022-10-26T14:16:53;6.72;;;5.35;;
60722;SDS011;46574;52.818;6.516;2022-10-26T14:19:21;9.57;;;5.57;;
60722;SDS011;46574;52.818;6.516;2022-10-26T14:21:51;6.03;;;4.88;;
60722;SDS011;46574;52.818;6.516;2022-10-26T14:24:26;5.75;;;4.78;;
60722;SDS011;46574;52.818;6.516;2022-10-26T14:26:53;7.68;;;5.28;;
60722;SDS011;46574;52.818;6.516;2022-10-26T14:29:20;8.02;;;5.30;;
60722;SDS011;46574;52.818;6.516;2022-10-26T14:34:14;4.95;;;3.85;;
60722;SDS011;46574;52.818;6.516;2022-10-26T14:39:20;6.65;;;4.47;;
60722;SDS011;46574;52.818;6.516;2022-10-26T14:42:06;7.20;;;4.95;;
60722;SDS011;46574;52.818;6.516;2022-10-26T14:44:46;5.40;;;4.68;;
60722;SDS011;46574;52.818;6.516;2022-10-26T14:47:13;6.28;;;4.25;;
60722;SDS011;46574;52.818;6.516;2022-10-26T14:49:47;7.85;;;4.88;;
60722;SDS011;46574;52.818;6.516;2022-10-26T14:52:15;5.35;;;4.38;;
60722;SDS011;46574;52.818;6.516;2022-10-26T14:55:13;7.55;;;4.70;;
60722;SDS011;46574;52.818;6.516;2022-10-26T14:57:41;6.00;;;4.38;;
60722;SDS011;46574;52.818;6.516;2022-10-26T15:02:50;7.20;;;5.13;;
60722;SDS011;46574;52.818;6.516;2022-10-26T15:05:19;6.00;;;4.10;;
60722;SDS011;46574;52.818;6.516;2022-10-26T15:07:57;6.05;;;5.05;;
60722;SDS011;46574;52.818;6.516;2022-10-26T15:10:36;6.45;;;4.82;;
60722;SDS011;46574;52.818;6.516;2022-10-26T15:15:46;6.80;;;5.00;;
60722;SDS011;46574;52.818;6.516;2022-10-26T15:20:51;7.28;;;5.55;;
60722;SDS011;46574;52.818;6.516;2022-10-26T15:23:18;5.63;;;4.95;;
60722;SDS011;46574;52.818;6.516;2022-10-26T15:26:02;6.75;;;6.07;;
60722;SDS011;46574;52.818;6.516;2022-10-26T15:28:29;6.30;;;5.70;;
60722;SDS011;46574;52.818;6.516;2022-10-26T15:33:35;10.13;;;5.72;;
60722;SDS011;46574;52.818;6.516;2022-10-26T15:36:25;7.18;;;5.75;;
60722;SDS011;46574;52.818;6.516;2022-10-26T15:38:51;6.35;;;5.72;;
60722;SDS011;46574;52.818;6.516;2022-10-26T15:41:22;4.90;;;4.30;;
60722;SDS011;46574;52.818;6.516;2022-10-26T15:43:53;6.20;;;5.45;;
60722;SDS011;46574;52.818;6.516;2022-10-26T15:46:28;4.85;;;4.45;;
60722;SDS011;46574;52.818;6.516;2022-10-26T15:48:56;5.47;;;4.95;;
60722;SDS011;46574;52.818;6.516;2022-10-26T15:51:24;6.15;;;5.55;;
60722;SDS011;46574;52.818;6.516;2022-10-26T15:53:50;6.80;;;6.13;;
60722;SDS011;46574;52.818;6.516;2022-10-26T15:56:16;6.72;;;5.88;;
60722;SDS011;46574;52.818;6.516;2022-10-26T15:58:43;5.80;;;4.82;;
60722;SDS011;46574;52.818;6.516;2022-10-26T16:01:13;7.15;;;5.63;;
60722;SDS011;46574;52.818;6.516;2022-10-26T16:03:41;7.32;;;6.25;;
60722;SDS011;46574;52.818;6.516;2022-10-26T16:06:07;10.20;;;6.38;;
60722;SDS011;46574;52.818;6.516;2022-10-26T16:08:40;6.50;;;5.80;;
60722;SDS011;46574;52.818;6.516;2022-10-26T16:11:07;8.20;;;5.60;;
60722;SDS011;46574;52.818;6.516;2022-10-26T16:13:33;8.80;;;5.57;;
60722;SDS011;46574;52.818;6.516;2022-10-26T16:15:59;6.20;;;5.47;;
60722;SDS011;46574;52.818;6.516;2022-10-26T16:18:25;5.47;;;4.97;;
60722;SDS011;46574;52.818;6.516;2022-10-26T16:20:51;6.95;;;6.35;;
60722;SDS011;46574;52.818;6.516;2022-10-26T16:23:16;5.78;;;4.90;;
60722;SDS011;46574;52.818;6.516;2022-10-26T16:25:43;5.43;;;4.93;;
60722;SDS011;46574;52.818;6.516;2022-10-26T16:28:11;7.60;;;5.77;;
60722;SDS011;46574;52.818;6.516;2022-10-26T16:33:05;6.95;;;6.10;;
60722;SDS011;46574;52.818;6.516;2022-10-26T16:35:30;7.57;;;6.50;;
60722;SDS011;46574;52.818;6.516;2022-10-26T16:37:56;6.10;;;5.60;;
60722;SDS011;46574;52.818;6.516;2022-10-26T16:40:21;6.32;;;5.70;;
60722;SDS011;46574;52.818;6.516;2022-10-26T16:42:47;8.18;;;7.43;;
60722;SDS011;46574;52.818;6.516;2022-10-26T16:45:14;7.45;;;6.85;;
60722;SDS011;46574;52.818;6.516;2022-10-26T16:47:40;9.07;;;6.32;;
60722;SDS011;46574;52.818;6.516;2022-10-26T16:50:06;6.80;;;5.97;;
60722;SDS011;46574;52.818;6.516;2022-10-26T16:52:33;7.45;;;6.43;;
60722;SDS011;46574;52.818;6.516;2022-10-26T16:55:00;7.05;;;6.43;;
60722;SDS011;46574;52.818;6.516;2022-10-26T16:57:26;7.25;;;6.57;;
60722;SDS011;46574;52.818;6.516;2022-10-26T16:59:51;6.90;;;6.20;;
60722;SDS011;46574;52.818;6.516;2022-10-26T17:02:17;7.32;;;6.05;;
60722;SDS011;46574;52.818;6.516;2022-10-26T17:04:44;7.18;;;6.65;;
60722;SDS011;46574;52.818;6.516;2022-10-26T17:07:10;8.15;;;7.45;;
60722;SDS011;46574;52.818;6.516;2022-10-26T17:09:36;8.32;;;6.97;;
60722;SDS011;46574;52.818;6.516;2022-10-26T17:12:02;7.65;;;6.80;;
60722;SDS011;46574;52.818;6.516;2022-10-26T17:14:28;7.80;;;7.07;;
60722;SDS011;46574;52.818;6.516;2022-10-26T17:16:54;7.55;;;6.80;;
60722;SDS011;46574;52.818;6.516;2022-10-26T17:19:19;6.93;;;6.22;;
60722;SDS011;46574;52.818;6.516;2022-10-26T17:21:45;6.38;;;5.70;;
60722;SDS011;46574;52.818;6.516;2022-10-26T17:24:11;6.93;;;5.65;;